sensor_id;sensor_type;location;lat;lon;timestamp;temperature;humidity
21031;DHT22;61072;47.808;7.636;2023-05-19T00:01:10;13.30;99.90
21031;DHT22;61072;47.808;7.636;2023-05-19T00:03:42;13.30;99.90
21031;DHT22;61072;47.808;7.636;2023-05-19T00:06:14;13.20;99.90
21031;DHT22;61072;47.808;7.636;2023-05-19T00:08:41;13.20;99.90
21031;DHT22;61072;47.808;7.636;2023-05-19T00:11:08;13.20;99.90
21031;DHT22;61072;47.808;7.636;2023-05-19T00:13:34;13.10;99.90
21031;DHT22;61072;47.808;7.636;2023-05-19T00:16:01;13.10;99.90
21031;DHT22;61072;47.808;7.636;2023-05-19T00:18:28;13.10;99.90
21031;DHT22;61072;47.808;7.636;2023-05-19T00:20:55;13.10;99.90
21031;DHT22;61072;47.808;7.636;2023-05-19T00:23:22;13.00;99.90
21031;DHT22;61072;47.808;7.636;2023-05-19T00:25:48;13.00;99.90
21031;DHT22;61072;47.808;7.636;2023-05-19T00:28:15;13.00;99.90
21031;DHT22;61072;47.808;7.636;2023-05-19T00:30:42;12.90;99.90
21031;DHT22;61072;47.808;7.636;2023-05-19T00:33:08;12.90;99.90
21031;DHT22;61072;47.808;7.636;2023-05-19T00:35:35;12.90;99.90
21031;DHT22;61072;47.808;7.636;2023-05-19T00:38:02;12.80;99.90
21031;DHT22;61072;47.808;7.636;2023-05-19T00:40:28;12.80;99.90
21031;DHT22;61072;47.808;7.636;2023-05-19T00:42:57;12.80;99.90
21031;DHT22;61072;47.808;7.636;2023-05-19T00:45:23;12.80;99.90
21031;DHT22;61072;47.808;7.636;2023-05-19T00:47:50;12.70;99.90
21031;DHT22;61072;47.808;7.636;2023-05-19T00:50:17;12.70;99.90
21031;DHT22;61072;47.808;7.636;2023-05-19T00:52:44;12.80;99.90
21031;DHT22;61072;47.808;7.636;2023-05-19T00:55:10;12.80;99.90
21031;DHT22;61072;47.808;7.636;2023-05-19T00:57:37;12.80;99.90
21031;DHT22;61072;47.808;7.636;2023-05-19T01:00:04;12.80;99.90
21031;DHT22;61072;47.808;7.636;2023-05-19T01:02:31;12.80;99.90
21031;DHT22;61072;47.808;7.636;2023-05-19T01:04:58;12.80;99.90
21031;DHT22;61072;47.808;7.636;2023-05-19T01:07:25;12.90;99.90
21031;DHT22;61072;47.808;7.636;2023-05-19T01:09:52;12.90;99.90
21031;DHT22;61072;47.808;7.636;2023-05-19T01:12:19;12.90;99.90
21031;DHT22;61072;47.808;7.636;2023-05-19T01:14:46;12.90;99.90
21031;DHT22;61072;47.808;7.636;2023-05-19T01:17:18;13.00;99.90
21031;DHT22;61072;47.808;7.636;2023-05-19T01:19:49;13.00;99.90
21031;DHT22;61072;47.808;7.636;2023-05-19T01:27:33;13.10;99.90
21031;DHT22;61072;47.808;7.636;2023-05-19T01:30:23;13.10;99.90
21031;DHT22;61072;47.808;7.636;2023-05-19T01:32:55;13.10;99.90
21031;DHT22;61072;47.808;7.636;2023-05-19T01:35:22;13.10;99.90
21031;DHT22;61072;47.808;7.636;2023-05-19T01:37:51;13.10;99.90
21031;DHT22;61072;47.808;7.636;2023-05-19T01:40:20;13.10;99.90
21031;DHT22;61072;47.808;7.636;2023-05-19T01:42:47;13.10;99.90
21031;DHT22;61072;47.808;7.636;2023-05-19T01:45:14;13.10;99.90
21031;DHT22;61072;47.808;7.636;2023-05-19T01:47:42;13.10;99.90
21031;DHT22;61072;47.808;7.636;2023-05-19T01:50:09;13.10;99.90
21031;DHT22;61072;47.808;7.636;2023-05-19T01:52:36;13.20;99.90
21031;DHT22;61072;47.808;7.636;2023-05-19T01:55:03;13.20;99.90
21031;DHT22;61072;47.808;7.636;2023-05-19T02:05:33;13.20;99.90
21031;DHT22;61072;47.808;7.636;2023-05-19T02:10:44;13.20;99.90
21031;DHT22;61072;47.808;7.636;2023-05-19T02:13:15;13.20;99.90
21031;DHT22;61072;47.808;7.636;2023-05-19T02:15:44;13.20;99.90
21031;DHT22;61072;47.808;7.636;2023-05-19T02:18:11;13.10;99.90
21031;DHT22;61072;47.808;7.636;2023-05-19T02:20:39;13.10;99.90
21031;DHT22;61072;47.808;7.636;2023-05-19T02:23:06;13.10;99.90
21031;DHT22;61072;47.808;7.636;2023-05-19T02:25:32;13.10;99.90
21031;DHT22;61072;47.808;7.636;2023-05-19T02:27:59;13.10;99.90
21031;DHT22;61072;47.808;7.636;2023-05-19T02:30:25;13.00;99.90
21031;DHT22;61072;47.808;7.636;2023-05-19T02:32:52;13.00;99.90
21031;DHT22;61072;47.808;7.636;2023-05-19T02:35:19;13.00;99.90
21031;DHT22;61072;47.808;7.636;2023-05-19T02:37:46;13.00;99.90
21031;DHT22;61072;47.808;7.636;2023-05-19T02:40:13;13.00;99.90
21031;DHT22;61072;47.808;7.636;2023-05-19T02:42:41;12.90;99.90
21031;DHT22;61072;47.808;7.636;2023-05-19T02:45:07;12.90;99.90
21031;DHT22;61072;47.808;7.636;2023-05-19T02:47:34;12.90;99.90
21031;DHT22;61072;47.808;7.636;2023-05-19T02:50:03;12.90;99.90
21031;DHT22;61072;47.808;7.636;2023-05-19T02:52:30;12.80;99.90
21031;DHT22;61072;47.808;7.636;2023-05-19T02:54:56;12.80;99.90
21031;DHT22;61072;47.808;7.636;2023-05-19T02:57:23;12.80;99.90
21031;DHT22;61072;47.808;7.636;2023-05-19T02:59:49;12.80;99.90
21031;DHT22;61072;47.808;7.636;2023-05-19T03:02:16;12.80;99.90
21031;DHT22;61072;47.808;7.636;2023-05-19T03:04:43;12.70;99.90
21031;DHT22;61072;47.808;7.636;2023-05-19T03:07:10;12.70;99.90
21031;DHT22;61072;47.808;7.636;2023-05-19T03:09:38;12.70;99.90
21031;DHT22;61072;47.808;7.636;2023-05-19T03:12:05;12.70;99.90
21031;DHT22;61072;47.808;7.636;2023-05-19T03:14:33;12.60;99.90
21031;DHT22;61072;47.808;7.636;2023-05-19T03:17:00;12.60;99.90
21031;DHT22;61072;47.808;7.636;2023-05-19T03:19:27;12.60;99.90
21031;DHT22;61072;47.808;7.636;2023-05-19T03:21:54;12.60;99.90
21031;DHT22;61072;47.808;7.636;2023-05-19T03:24:21;12.60;99.90
21031;DHT22;61072;47.808;7.636;2023-05-19T03:26:48;12.60;99.90
21031;DHT22;61072;47.808;7.636;2023-05-19T03:29:15;12.60;99.90
21031;DHT22;61072;47.808;7.636;2023-05-19T03:31:42;12.60;99.90
21031;DHT22;61072;47.808;7.636;2023-05-19T03:34:09;12.60;99.90
21031;DHT22;61072;47.808;7.636;2023-05-19T03:36:35;12.70;99.90
21031;DHT22;61072;47.808;7.636;2023-05-19T03:39:05;12.60;99.90
21031;DHT22;61072;47.808;7.636;2023-05-19T03:41:32;12.60;99.90
21031;DHT22;61072;47.808;7.636;2023-05-19T03:43:58;12.60;99.90
21031;DHT22;61072;47.808;7.636;2023-05-19T03:46:25;12.60;99.90
21031;DHT22;61072;47.808;7.636;2023-05-19T03:48:52;12.60;99.90
21031;DHT22;61072;47.808;7.636;2023-05-19T03:51:18;12.60;99.90
21031;DHT22;61072;47.808;7.636;2023-05-19T03:53:45;12.50;99.90
21031;DHT22;61072;47.808;7.636;2023-05-19T03:56:12;12.40;99.90
21031;DHT22;61072;47.808;7.636;2023-05-19T03:58:39;12.40;99.90
21031;DHT22;61072;47.808;7.636;2023-05-19T04:01:10;12.40;99.90
21031;DHT22;61072;47.808;7.636;2023-05-19T04:03:37;12.30;99.90
21031;DHT22;61072;47.808;7.636;2023-05-19T04:06:03;12.30;99.90
21031;DHT22;61072;47.808;7.636;2023-05-19T04:08:30;12.30;99.90
21031;DHT22;61072;47.808;7.636;2023-05-19T04:10:57;12.30;99.90
21031;DHT22;61072;47.808;7.636;2023-05-19T04:13:24;12.30;99.90
21031;DHT22;61072;47.808;7.636;2023-05-19T04:15:50;12.30;99.90
21031;DHT22;61072;47.808;7.636;2023-05-19T04:18:18;12.30;99.90
21031;DHT22;61072;47.808;7.636;2023-05-19T04:20:44;12.30;99.90
21031;DHT22;61072;47.808;7.636;2023-05-19T04:23:11;12.30;99.90
21031;DHT22;61072;47.808;7.636;2023-05-19T04:25:38;12.20;99.90
21031;DHT22;61072;47.808;7.636;2023-05-19T04:28:06;12.20;99.90
21031;DHT22;61072;47.808;7.636;2023-05-19T04:30:33;12.10;99.90
21031;DHT22;61072;47.808;7.636;2023-05-19T04:33:00;12.10;99.90
21031;DHT22;61072;47.808;7.636;2023-05-19T04:35:30;12.10;99.90
21031;DHT22;61072;47.808;7.636;2023-05-19T04:37:56;12.10;99.90
21031;DHT22;61072;47.808;7.636;2023-05-19T04:40:23;12.10;99.90
21031;DHT22;61072;47.808;7.636;2023-05-19T04:42:50;12.10;99.90
21031;DHT22;61072;47.808;7.636;2023-05-19T04:45:17;12.10;99.90
21031;DHT22;61072;47.808;7.636;2023-05-19T04:47:44;12.10;99.90
21031;DHT22;61072;47.808;7.636;2023-05-19T04:50:13;12.10;99.90
21031;DHT22;61072;47.808;7.636;2023-05-19T04:52:40;12.10;99.90
21031;DHT22;61072;47.808;7.636;2023-05-19T04:55:12;12.10;99.90
21031;DHT22;61072;47.808;7.636;2023-05-19T04:57:39;12.10;99.90
21031;DHT22;61072;47.808;7.636;2023-05-19T05:00:06;12.20;99.90
21031;DHT22;61072;47.808;7.636;2023-05-19T05:02:35;12.30;99.90
21031;DHT22;61072;47.808;7.636;2023-05-19T05:05:02;12.30;99.90
21031;DHT22;61072;47.808;7.636;2023-05-19T05:07:29;12.30;99.90
21031;DHT22;61072;47.808;7.636;2023-05-19T05:09:58;12.30;99.90
21031;DHT22;61072;47.808;7.636;2023-05-19T05:12:25;12.30;99.90
21031;DHT22;61072;47.808;7.636;2023-05-19T05:14:51;12.30;99.90
21031;DHT22;61072;47.808;7.636;2023-05-19T05:17:18;12.30;99.90
21031;DHT22;61072;47.808;7.636;2023-05-19T05:19:45;12.20;99.90
21031;DHT22;61072;47.808;7.636;2023-05-19T05:22:12;12.20;99.90
21031;DHT22;61072;47.808;7.636;2023-05-19T05:24:39;12.30;99.90
21031;DHT22;61072;47.808;7.636;2023-05-19T05:27:06;12.20;99.90
21031;DHT22;61072;47.808;7.636;2023-05-19T05:29:33;12.30;99.90
21031;DHT22;61072;47.808;7.636;2023-05-19T05:32:00;12.30;99.90
21031;DHT22;61072;47.808;7.636;2023-05-19T05:34:27;12.30;99.90
21031;DHT22;61072;47.808;7.636;2023-05-19T05:36:53;12.30;99.90
21031;DHT22;61072;47.808;7.636;2023-05-19T05:39:20;12.30;99.90
21031;DHT22;61072;47.808;7.636;2023-05-19T05:41:47;12.30;99.90
21031;DHT22;61072;47.808;7.636;2023-05-19T05:44:13;12.30;99.90
21031;DHT22;61072;47.808;7.636;2023-05-19T05:46:40;12.30;99.90
21031;DHT22;61072;47.808;7.636;2023-05-19T05:49:07;12.10;99.90
21031;DHT22;61072;47.808;7.636;2023-05-19T05:51:34;12.10;99.90
21031;DHT22;61072;47.808;7.636;2023-05-19T05:54:01;11.90;99.90
21031;DHT22;61072;47.808;7.636;2023-05-19T05:56:28;11.90;99.90
21031;DHT22;61072;47.808;7.636;2023-05-19T05:58:54;11.90;99.90
21031;DHT22;61072;47.808;7.636;2023-05-19T06:01:22;11.90;99.90
21031;DHT22;61072;47.808;7.636;2023-05-19T06:03:49;11.90;99.90
21031;DHT22;61072;47.808;7.636;2023-05-19T06:06:16;11.90;99.90
21031;DHT22;61072;47.808;7.636;2023-05-19T06:08:43;11.90;99.90
21031;DHT22;61072;47.808;7.636;2023-05-19T06:11:09;11.90;99.90
21031;DHT22;61072;47.808;7.636;2023-05-19T06:13:36;11.90;99.90
21031;DHT22;61072;47.808;7.636;2023-05-19T06:16:04;11.90;99.90
21031;DHT22;61072;47.808;7.636;2023-05-19T06:18:31;12.00;99.90
21031;DHT22;61072;47.808;7.636;2023-05-19T06:20:58;12.00;99.90
21031;DHT22;61072;47.808;7.636;2023-05-19T06:23:24;12.10;99.90
21031;DHT22;61072;47.808;7.636;2023-05-19T06:25:52;12.10;99.90
21031;DHT22;61072;47.808;7.636;2023-05-19T06:28:19;12.10;99.90
21031;DHT22;61072;47.808;7.636;2023-05-19T06:30:45;12.20;99.90
21031;DHT22;61072;47.808;7.636;2023-05-19T06:33:12;12.10;99.90
21031;DHT22;61072;47.808;7.636;2023-05-19T06:35:39;12.10;99.90
21031;DHT22;61072;47.808;7.636;2023-05-19T06:38:05;12.10;99.90
21031;DHT22;61072;47.808;7.636;2023-05-19T06:40:32;12.10;99.90
21031;DHT22;61072;47.808;7.636;2023-05-19T06:42:59;12.10;99.90
21031;DHT22;61072;47.808;7.636;2023-05-19T06:45:26;12.10;99.90
21031;DHT22;61072;47.808;7.636;2023-05-19T06:47:52;12.00;99.90
21031;DHT22;61072;47.808;7.636;2023-05-19T06:50:20;12.00;99.90
21031;DHT22;61072;47.808;7.636;2023-05-19T06:52:47;12.10;99.90
21031;DHT22;61072;47.808;7.636;2023-05-19T06:55:13;12.10;99.90
21031;DHT22;61072;47.808;7.636;2023-05-19T06:57:40;12.20;99.90
21031;DHT22;61072;47.808;7.636;2023-05-19T07:00:07;12.20;99.90
21031;DHT22;61072;47.808;7.636;2023-05-19T07:02:56;12.30;99.90
21031;DHT22;61072;47.808;7.636;2023-05-19T07:05:22;12.30;99.90
21031;DHT22;61072;47.808;7.636;2023-05-19T07:07:49;12.40;99.90
21031;DHT22;61072;47.808;7.636;2023-05-19T07:10:16;12.40;99.90
21031;DHT22;61072;47.808;7.636;2023-05-19T07:12:42;12.50;99.90
21031;DHT22;61072;47.808;7.636;2023-05-19T07:15:09;12.60;99.90
21031;DHT22;61072;47.808;7.636;2023-05-19T07:17:36;12.70;99.90
21031;DHT22;61072;47.808;7.636;2023-05-19T07:20:03;12.70;99.90
21031;DHT22;61072;47.808;7.636;2023-05-19T07:22:32;12.80;99.90
21031;DHT22;61072;47.808;7.636;2023-05-19T07:25:02;12.90;99.90
21031;DHT22;61072;47.808;7.636;2023-05-19T07:27:28;12.90;99.90
21031;DHT22;61072;47.808;7.636;2023-05-19T07:29:55;12.90;99.90
21031;DHT22;61072;47.808;7.636;2023-05-19T07:32:22;12.90;99.90
21031;DHT22;61072;47.808;7.636;2023-05-19T07:34:49;13.00;99.90
21031;DHT22;61072;47.808;7.636;2023-05-19T07:37:15;13.00;99.90
21031;DHT22;61072;47.808;7.636;2023-05-19T07:39:42;13.10;99.90
21031;DHT22;61072;47.808;7.636;2023-05-19T07:42:09;13.10;99.90
21031;DHT22;61072;47.808;7.636;2023-05-19T07:44:35;13.10;99.90
21031;DHT22;61072;47.808;7.636;2023-05-19T07:47:02;13.20;99.90
21031;DHT22;61072;47.808;7.636;2023-05-19T07:49:29;13.20;99.90
21031;DHT22;61072;47.808;7.636;2023-05-19T07:51:56;13.20;99.90
21031;DHT22;61072;47.808;7.636;2023-05-19T07:54:22;13.30;99.90
21031;DHT22;61072;47.808;7.636;2023-05-19T07:56:49;13.30;99.90
21031;DHT22;61072;47.808;7.636;2023-05-19T07:59:15;13.30;99.90
21031;DHT22;61072;47.808;7.636;2023-05-19T08:01:42;13.40;99.90
21031;DHT22;61072;47.808;7.636;2023-05-19T08:04:09;13.40;99.90
21031;DHT22;61072;47.808;7.636;2023-05-19T08:06:38;13.50;99.90
21031;DHT22;61072;47.808;7.636;2023-05-19T08:09:05;13.50;99.90
21031;DHT22;61072;47.808;7.636;2023-05-19T08:11:32;13.50;99.90
21031;DHT22;61072;47.808;7.636;2023-05-19T08:13:59;13.60;99.90
21031;DHT22;61072;47.808;7.636;2023-05-19T08:16:25;13.70;99.90
21031;DHT22;61072;47.808;7.636;2023-05-19T08:18:52;13.70;99.90
21031;DHT22;61072;47.808;7.636;2023-05-19T08:21:20;13.70;99.90
21031;DHT22;61072;47.808;7.636;2023-05-19T08:23:47;13.80;99.90
21031;DHT22;61072;47.808;7.636;2023-05-19T08:26:13;13.90;99.90
21031;DHT22;61072;47.808;7.636;2023-05-19T08:28:40;13.90;99.90
21031;DHT22;61072;47.808;7.636;2023-05-19T08:31:07;14.00;99.90
21031;DHT22;61072;47.808;7.636;2023-05-19T08:33:34;14.10;99.90
21031;DHT22;61072;47.808;7.636;2023-05-19T08:36:00;14.10;99.90
21031;DHT22;61072;47.808;7.636;2023-05-19T08:38:27;14.20;99.90
21031;DHT22;61072;47.808;7.636;2023-05-19T08:40:54;14.20;99.90
21031;DHT22;61072;47.808;7.636;2023-05-19T08:43:21;14.20;99.90
21031;DHT22;61072;47.808;7.636;2023-05-19T08:45:47;14.30;99.90
21031;DHT22;61072;47.808;7.636;2023-05-19T08:48:15;14.30;99.90
21031;DHT22;61072;47.808;7.636;2023-05-19T08:50:44;14.40;99.90
21031;DHT22;61072;47.808;7.636;2023-05-19T08:53:14;14.40;99.90
21031;DHT22;61072;47.808;7.636;2023-05-19T08:56:05;14.50;99.90
21031;DHT22;61072;47.808;7.636;2023-05-19T08:58:39;14.60;99.90
21031;DHT22;61072;47.808;7.636;2023-05-19T09:01:06;14.80;99.90
21031;DHT22;61072;47.808;7.636;2023-05-19T09:03:33;14.90;99.90
21031;DHT22;61072;47.808;7.636;2023-05-19T09:06:04;15.10;99.90
21031;DHT22;61072;47.808;7.636;2023-05-19T09:08:33;15.20;99.90
21031;DHT22;61072;47.808;7.636;2023-05-19T09:10:59;15.30;99.90
21031;DHT22;61072;47.808;7.636;2023-05-19T09:13:26;15.40;99.90
21031;DHT22;61072;47.808;7.636;2023-05-19T09:15:54;15.50;99.90
21031;DHT22;61072;47.808;7.636;2023-05-19T09:18:22;15.60;99.90
21031;DHT22;61072;47.808;7.636;2023-05-19T09:20:49;15.60;99.90
21031;DHT22;61072;47.808;7.636;2023-05-19T09:23:16;15.70;99.90
21031;DHT22;61072;47.808;7.636;2023-05-19T09:25:47;15.70;99.90
21031;DHT22;61072;47.808;7.636;2023-05-19T09:28:22;15.80;99.90
21031;DHT22;61072;47.808;7.636;2023-05-19T09:30:57;15.80;99.90
21031;DHT22;61072;47.808;7.636;2023-05-19T09:33:23;15.90;99.90
21031;DHT22;61072;47.808;7.636;2023-05-19T09:35:50;16.10;99.90
21031;DHT22;61072;47.808;7.636;2023-05-19T09:38:17;16.20;99.90
21031;DHT22;61072;47.808;7.636;2023-05-19T09:40:44;16.30;99.90
21031;DHT22;61072;47.808;7.636;2023-05-19T09:43:13;16.30;99.90
21031;DHT22;61072;47.808;7.636;2023-05-19T09:45:40;16.40;99.90
21031;DHT22;61072;47.808;7.636;2023-05-19T09:48:07;16.50;99.90
21031;DHT22;61072;47.808;7.636;2023-05-19T09:50:33;16.50;99.90
21031;DHT22;61072;47.808;7.636;2023-05-19T09:53:01;16.50;99.90
21031;DHT22;61072;47.808;7.636;2023-05-19T09:55:29;16.60;99.90
21031;DHT22;61072;47.808;7.636;2023-05-19T09:57:58;16.60;99.90
21031;DHT22;61072;47.808;7.636;2023-05-19T10:00:26;16.60;99.90
21031;DHT22;61072;47.808;7.636;2023-05-19T10:02:53;16.70;99.90
21031;DHT22;61072;47.808;7.636;2023-05-19T10:05:21;16.90;99.90
21031;DHT22;61072;47.808;7.636;2023-05-19T10:07:49;17.00;99.90
21031;DHT22;61072;47.808;7.636;2023-05-19T10:10:17;17.10;99.90
21031;DHT22;61072;47.808;7.636;2023-05-19T10:12:47;17.10;99.90
21031;DHT22;61072;47.808;7.636;2023-05-19T10:15:15;17.10;99.90
21031;DHT22;61072;47.808;7.636;2023-05-19T10:17:42;17.10;99.90
21031;DHT22;61072;47.808;7.636;2023-05-19T10:20:09;17.20;99.90
21031;DHT22;61072;47.808;7.636;2023-05-19T10:22:38;17.20;99.90
21031;DHT22;61072;47.808;7.636;2023-05-19T10:25:05;17.10;99.90
21031;DHT22;61072;47.808;7.636;2023-05-19T10:27:33;17.10;99.90
21031;DHT22;61072;47.808;7.636;2023-05-19T10:30:07;17.20;99.90
21031;DHT22;61072;47.808;7.636;2023-05-19T10:32:38;17.30;99.90
21031;DHT22;61072;47.808;7.636;2023-05-19T10:40:06;17.50;99.90
21031;DHT22;61072;47.808;7.636;2023-05-19T10:42:37;17.50;99.90
21031;DHT22;61072;47.808;7.636;2023-05-19T10:45:12;17.50;99.90
21031;DHT22;61072;47.808;7.636;2023-05-19T10:47:42;17.70;99.90
21031;DHT22;61072;47.808;7.636;2023-05-19T10:50:09;17.70;99.90
21031;DHT22;61072;47.808;7.636;2023-05-19T10:52:37;17.70;99.90
21031;DHT22;61072;47.808;7.636;2023-05-19T10:55:07;17.80;99.90
21031;DHT22;61072;47.808;7.636;2023-05-19T10:57:34;17.90;99.90
21031;DHT22;61072;47.808;7.636;2023-05-19T11:00:02;18.00;99.90
21031;DHT22;61072;47.808;7.636;2023-05-19T11:02:40;18.00;99.90
21031;DHT22;61072;47.808;7.636;2023-05-19T11:05:08;17.90;99.90
21031;DHT22;61072;47.808;7.636;2023-05-19T11:07:35;17.80;99.90
21031;DHT22;61072;47.808;7.636;2023-05-19T11:10:05;17.80;99.90
21031;DHT22;61072;47.808;7.636;2023-05-19T11:12:42;17.90;99.90
21031;DHT22;61072;47.808;7.636;2023-05-19T11:15:10;17.90;99.90
21031;DHT22;61072;47.808;7.636;2023-05-19T11:17:38;17.90;99.90
21031;DHT22;61072;47.808;7.636;2023-05-19T11:20:06;17.90;99.90
21031;DHT22;61072;47.808;7.636;2023-05-19T11:22:33;17.80;99.90
21031;DHT22;61072;47.808;7.636;2023-05-19T11:25:01;17.90;99.90
21031;DHT22;61072;47.808;7.636;2023-05-19T11:27:33;17.80;99.90
21031;DHT22;61072;47.808;7.636;2023-05-19T11:30:00;17.80;99.90
21031;DHT22;61072;47.808;7.636;2023-05-19T11:32:28;17.90;99.90
21031;DHT22;61072;47.808;7.636;2023-05-19T11:34:56;18.00;99.90
21031;DHT22;61072;47.808;7.636;2023-05-19T11:37:22;18.20;99.90
21031;DHT22;61072;47.808;7.636;2023-05-19T11:39:50;18.20;99.90
21031;DHT22;61072;47.808;7.636;2023-05-19T11:42:17;18.30;99.90
21031;DHT22;61072;47.808;7.636;2023-05-19T11:44:44;18.30;99.90
21031;DHT22;61072;47.808;7.636;2023-05-19T11:47:14;18.30;99.90
21031;DHT22;61072;47.808;7.636;2023-05-19T11:49:44;18.30;99.90
21031;DHT22;61072;47.808;7.636;2023-05-19T11:52:11;18.40;99.90
21031;DHT22;61072;47.808;7.636;2023-05-19T11:54:38;18.60;99.90
21031;DHT22;61072;47.808;7.636;2023-05-19T11:57:07;18.70;99.90
21031;DHT22;61072;47.808;7.636;2023-05-19T11:59:34;18.80;99.90
21031;DHT22;61072;47.808;7.636;2023-05-19T12:02:03;19.00;99.90
21031;DHT22;61072;47.808;7.636;2023-05-19T12:04:39;18.90;99.90
21031;DHT22;61072;47.808;7.636;2023-05-19T12:07:06;18.80;99.90
21031;DHT22;61072;47.808;7.636;2023-05-19T12:09:33;18.80;99.90
21031;DHT22;61072;47.808;7.636;2023-05-19T12:12:00;18.70;99.90
21031;DHT22;61072;47.808;7.636;2023-05-19T12:14:28;18.70;99.90
21031;DHT22;61072;47.808;7.636;2023-05-19T12:16:55;18.60;99.90
21031;DHT22;61072;47.808;7.636;2023-05-19T12:19:23;18.40;99.90
21031;DHT22;61072;47.808;7.636;2023-05-19T12:21:51;18.50;99.90
21031;DHT22;61072;47.808;7.636;2023-05-19T12:24:19;18.50;99.90
21031;DHT22;61072;47.808;7.636;2023-05-19T12:26:46;18.70;99.90
21031;DHT22;61072;47.808;7.636;2023-05-19T12:29:12;18.70;99.90
21031;DHT22;61072;47.808;7.636;2023-05-19T12:31:39;18.80;99.90
21031;DHT22;61072;47.808;7.636;2023-05-19T12:34:06;18.70;99.90
21031;DHT22;61072;47.808;7.636;2023-05-19T12:36:33;18.70;99.90
21031;DHT22;61072;47.808;7.636;2023-05-19T12:38:59;18.80;99.90
21031;DHT22;61072;47.808;7.636;2023-05-19T12:41:26;18.90;99.90
21031;DHT22;61072;47.808;7.636;2023-05-19T12:43:54;19.00;99.90
21031;DHT22;61072;47.808;7.636;2023-05-19T12:46:21;19.20;99.90
21031;DHT22;61072;47.808;7.636;2023-05-19T12:48:48;19.30;99.90
21031;DHT22;61072;47.808;7.636;2023-05-19T12:51:15;19.30;99.90
21031;DHT22;61072;47.808;7.636;2023-05-19T12:53:43;19.40;99.90
21031;DHT22;61072;47.808;7.636;2023-05-19T12:56:10;19.30;99.90
21031;DHT22;61072;47.808;7.636;2023-05-19T12:58:38;19.30;99.90
21031;DHT22;61072;47.808;7.636;2023-05-19T13:01:05;19.30;99.90
21031;DHT22;61072;47.808;7.636;2023-05-19T13:03:38;19.30;99.90
21031;DHT22;61072;47.808;7.636;2023-05-19T13:06:05;19.30;99.90
21031;DHT22;61072;47.808;7.636;2023-05-19T13:08:32;19.30;99.90
21031;DHT22;61072;47.808;7.636;2023-05-19T13:10:59;19.20;99.90
21031;DHT22;61072;47.808;7.636;2023-05-19T13:13:25;19.10;99.90
21031;DHT22;61072;47.808;7.636;2023-05-19T13:15:52;19.00;99.90
21031;DHT22;61072;47.808;7.636;2023-05-19T13:18:19;19.00;99.90
21031;DHT22;61072;47.808;7.636;2023-05-19T13:20:46;18.90;99.90
21031;DHT22;61072;47.808;7.636;2023-05-19T13:23:14;18.70;99.90
21031;DHT22;61072;47.808;7.636;2023-05-19T13:25:41;18.70;99.90
21031;DHT22;61072;47.808;7.636;2023-05-19T13:28:08;18.70;99.90
21031;DHT22;61072;47.808;7.636;2023-05-19T13:30:35;18.60;99.90
21031;DHT22;61072;47.808;7.636;2023-05-19T13:33:03;18.60;99.90
21031;DHT22;61072;47.808;7.636;2023-05-19T13:35:30;18.60;99.90
21031;DHT22;61072;47.808;7.636;2023-05-19T13:38:03;18.70;99.90
21031;DHT22;61072;47.808;7.636;2023-05-19T13:40:30;18.80;99.90
21031;DHT22;61072;47.808;7.636;2023-05-19T13:43:00;18.70;99.90
21031;DHT22;61072;47.808;7.636;2023-05-19T13:45:27;18.80;99.90
21031;DHT22;61072;47.808;7.636;2023-05-19T13:47:54;18.80;99.90
21031;DHT22;61072;47.808;7.636;2023-05-19T13:50:21;18.80;99.90
21031;DHT22;61072;47.808;7.636;2023-05-19T13:52:48;18.70;99.90
21031;DHT22;61072;47.808;7.636;2023-05-19T13:55:14;18.70;99.90
21031;DHT22;61072;47.808;7.636;2023-05-19T13:57:41;18.70;99.90
21031;DHT22;61072;47.808;7.636;2023-05-19T14:00:09;18.70;99.90
21031;DHT22;61072;47.808;7.636;2023-05-19T14:02:36;18.70;99.90
21031;DHT22;61072;47.808;7.636;2023-05-19T14:05:04;18.80;99.90
21031;DHT22;61072;47.808;7.636;2023-05-19T14:07:31;18.80;99.90
21031;DHT22;61072;47.808;7.636;2023-05-19T14:10:00;18.60;99.90
21031;DHT22;61072;47.808;7.636;2023-05-19T14:12:27;18.50;99.90
21031;DHT22;61072;47.808;7.636;2023-05-19T14:15:09;18.50;99.90
21031;DHT22;61072;47.808;7.636;2023-05-19T14:17:37;18.40;99.90
21031;DHT22;61072;47.808;7.636;2023-05-19T14:20:03;18.40;99.90
21031;DHT22;61072;47.808;7.636;2023-05-19T14:22:30;18.30;99.90
21031;DHT22;61072;47.808;7.636;2023-05-19T14:24:57;18.30;99.90
21031;DHT22;61072;47.808;7.636;2023-05-19T14:27:26;18.30;99.90
21031;DHT22;61072;47.808;7.636;2023-05-19T14:29:52;18.30;99.90
21031;DHT22;61072;47.808;7.636;2023-05-19T14:32:20;18.40;99.90
21031;DHT22;61072;47.808;7.636;2023-05-19T14:34:46;18.40;99.90
21031;DHT22;61072;47.808;7.636;2023-05-19T14:37:13;18.40;99.90
21031;DHT22;61072;47.808;7.636;2023-05-19T14:39:40;18.30;99.90
21031;DHT22;61072;47.808;7.636;2023-05-19T14:42:06;18.30;99.90
21031;DHT22;61072;47.808;7.636;2023-05-19T14:44:33;18.20;99.90
21031;DHT22;61072;47.808;7.636;2023-05-19T14:47:00;18.00;99.90
21031;DHT22;61072;47.808;7.636;2023-05-19T14:49:27;17.90;99.90
21031;DHT22;61072;47.808;7.636;2023-05-19T14:51:53;17.80;99.90
21031;DHT22;61072;47.808;7.636;2023-05-19T14:54:20;17.70;99.90
21031;DHT22;61072;47.808;7.636;2023-05-19T14:56:47;17.60;99.90
21031;DHT22;61072;47.808;7.636;2023-05-19T14:59:13;17.60;99.90
21031;DHT22;61072;47.808;7.636;2023-05-19T15:01:40;17.50;99.90
21031;DHT22;61072;47.808;7.636;2023-05-19T15:04:07;17.50;99.90
21031;DHT22;61072;47.808;7.636;2023-05-19T15:06:34;17.60;99.90
21031;DHT22;61072;47.808;7.636;2023-05-19T15:09:00;17.60;99.90
21031;DHT22;61072;47.808;7.636;2023-05-19T15:11:27;17.60;99.90
21031;DHT22;61072;47.808;7.636;2023-05-19T15:13:54;17.50;99.90
21031;DHT22;61072;47.808;7.636;2023-05-19T15:16:20;17.60;99.90
21031;DHT22;61072;47.808;7.636;2023-05-19T15:18:47;17.50;99.90
21031;DHT22;61072;47.808;7.636;2023-05-19T15:21:14;17.40;99.90
21031;DHT22;61072;47.808;7.636;2023-05-19T15:23:40;17.40;99.90
21031;DHT22;61072;47.808;7.636;2023-05-19T15:26:07;17.40;99.90
21031;DHT22;61072;47.808;7.636;2023-05-19T15:28:34;17.40;99.90
21031;DHT22;61072;47.808;7.636;2023-05-19T15:31:01;17.40;99.90
21031;DHT22;61072;47.808;7.636;2023-05-19T15:33:27;17.40;99.90
21031;DHT22;61072;47.808;7.636;2023-05-19T15:35:55;17.30;99.90
21031;DHT22;61072;47.808;7.636;2023-05-19T15:38:22;17.30;99.90
21031;DHT22;61072;47.808;7.636;2023-05-19T15:40:48;17.30;99.90
21031;DHT22;61072;47.808;7.636;2023-05-19T15:43:15;17.30;99.90
21031;DHT22;61072;47.808;7.636;2023-05-19T15:45:42;17.20;99.90
21031;DHT22;61072;47.808;7.636;2023-05-19T15:48:09;17.30;99.90
21031;DHT22;61072;47.808;7.636;2023-05-19T15:50:37;17.30;99.90
21031;DHT22;61072;47.808;7.636;2023-05-19T15:53:03;17.10;99.90